Time;durP1;ratioP1;P1;durP2;ratioP2;P2;SDS_P1;SDS_P2;PMS_P1;PMS_P2;Temp;Humidity;BMP_temperature;BMP_pressure;BME280_temperature;BME280_humidity;BME280_pressure;Samples;Min_cycle;Max_cycle;Signal;HPM_P1;HPM_P2
2021/12/12 00:00:40;;;;;;;33.00;18.30;;;0.00;99.90;;;;;;5094060;28;20165;-69
2021/12/12 00:03:20;;;;;;;33.87;18.60;;;-0.10;99.90;;;;;;5093680;28;20510;-70
2021/12/12 00:05:54;;;;;;;38.50;20.40;;;0.00;99.90;;;;;;5093821;28;20166;-68
2021/12/12 00:08:22;;;;;;;34.57;19.57;;;0.00;99.90;;;;;;5093646;28;20163;-70
2021/12/12 00:10:54;;;;;;;29.57;17.53;;;0.00;99.90;;;;;;5095336;28;20647;-70
2021/12/12 00:13:41;;;;;;;27.60;17.00;;;-0.10;99.90;;;;;;5076537;28;20628;-68
2021/12/12 00:16:07;;;;;;;34.50;19.13;;;-0.10;99.90;;;;;;5093275;28;20577;-69
2021/12/12 00:18:34;;;;;;;34.03;17.97;;;-0.10;99.90;;;;;;5093213;28;20595;-70
2021/12/12 00:20:59;;;;;;;37.60;21.30;;;-0.10;99.90;;;;;;5093440;28;20245;-70
2021/12/12 00:23:26;;;;;;;32.07;17.47;;;-0.10;99.90;;;;;;5094030;28;20201;-71
2021/12/12 00:25:54;;;;;;;32.20;17.10;;;-0.10;99.90;;;;;;5112168;28;20549;-70
2021/12/12 00:28:21;;;;;;;35.20;18.43;;;-0.20;99.90;;;;;;5097373;28;20272;-69
2021/12/12 00:30:54;;;;;;;34.80;18.80;;;-0.10;99.90;;;;;;5097055;28;20243;-69
2021/12/12 00:33:20;;;;;;;34.17;17.53;;;-0.10;99.90;;;;;;5097625;28;20175;-69
2021/12/12 00:35:48;;;;;;;32.43;19.73;;;-0.20;99.90;;;;;;5096800;28;20595;-70
2021/12/12 00:38:20;;;;;;;33.53;17.73;;;-0.10;99.90;;;;;;5096975;28;20463;-71
2021/12/12 00:40:50;;;;;;;35.67;18.20;;;-0.20;99.90;;;;;;5096895;28;20163;-69
2021/12/12 00:43:47;;;;;;;32.37;18.70;;;-0.20;99.90;;;;;;5097194;28;20164;-70
2021/12/12 00:46:14;;;;;;;34.60;17.53;;;-0.30;99.90;;;;;;5084210;28;20634;-70
2021/12/12 00:48:42;;;;;;;25.30;15.83;;;-0.30;99.90;;;;;;5113301;28;20292;-70
2021/12/12 00:51:12;;;;;;;31.47;16.77;;;-0.30;99.90;;;;;;5104157;28;20197;-69
2021/12/12 00:53:39;;;;;;;26.67;15.93;;;-0.40;99.90;;;;;;5099872;28;20174;-68
2021/12/12 00:56:05;;;;;;;25.00;16.00;;;-0.40;99.90;;;;;;5097110;28;20163;-68
2021/12/12 00:58:32;;;;;;;28.77;16.77;;;-0.40;99.90;;;;;;5096779;28;20175;-69
2021/12/12 01:01:06;;;;;;;26.50;16.30;;;-0.30;99.90;;;;;;5096340;28;20609;-69
2021/12/12 01:03:38;;;;;;;28.47;16.47;;;-0.40;99.90;;;;;;5078666;28;20181;-69
2021/12/12 01:06:06;;;;;;;25.87;15.30;;;-0.40;99.90;;;;;;5096463;28;20573;-69
2021/12/12 01:08:33;;;;;;;31.40;16.67;;;-0.40;99.90;;;;;;5096502;28;20176;-69
2021/12/12 01:11:07;;;;;;;31.57;16.73;;;-0.30;99.90;;;;;;5096284;28;20225;-70
2021/12/12 01:13:33;;;;;;;27.67;15.27;;;-0.40;99.90;;;;;;5096541;28;20251;-69
2021/12/12 01:16:11;;;;;;;31.70;16.67;;;-0.40;99.90;;;;;;5096902;28;20501;-69
2021/12/12 01:18:40;;;;;;;26.07;16.50;;;-0.40;99.90;;;;;;5096849;28;20167;-69
2021/12/12 01:21:14;;;;;;;28.63;16.57;;;-0.40;99.90;;;;;;5097563;28;20484;-68
2021/12/12 01:23:43;;;;;;;28.90;16.70;;;-0.40;99.90;;;;;;5078515;28;20576;-69
2021/12/12 01:26:09;;;;;;;27.20;16.93;;;-0.40;99.90;;;;;;5096634;28;20577;-70
2021/12/12 01:28:40;;;;;;;28.20;16.17;;;-0.40;99.90;;;;;;5096156;28;20166;-70
2021/12/12 01:31:09;;;;;;;31.87;16.83;;;-0.40;99.90;;;;;;5078184;28;20553;-70
2021/12/12 01:33:36;;;;;;;30.13;16.90;;;-0.40;99.90;;;;;;5097132;28;20167;-70
2021/12/12 01:36:07;;;;;;;30.97;16.67;;;-0.40;99.90;;;;;;5098093;28;20212;-69
2021/12/12 01:38:54;;;;;;;26.80;16.83;;;-0.30;99.90;;;;;;5098582;28;20194;-69
2021/12/12 01:41:38;;;;;;;28.50;16.00;;;-0.30;99.90;;;;;;5097314;28;20175;-68
2021/12/12 01:44:18;;;;;;;30.23;16.30;;;-0.20;99.90;;;;;;5114324;28;20185;-68
2021/12/12 01:46:50;;;;;;;27.00;16.70;;;-0.10;99.90;;;;;;5098678;28;20198;-69
2021/12/12 01:49:23;;;;;;;32.50;16.13;;;-0.20;99.90;;;;;;5097705;28;20182;-68
2021/12/12 01:51:52;;;;;;;36.10;16.13;;;-0.30;99.90;;;;;;5080221;28;20211;-69
2021/12/12 01:54:26;;;;;;;29.23;16.53;;;-0.40;99.90;;;;;;5099660;28;20182;-70
2021/12/12 01:56:59;;;;;;;30.43;16.43;;;-0.30;99.90;;;;;;5100329;28;20155;-70
2021/12/12 01:59:34;;;;;;;26.50;15.07;;;-0.30;99.90;;;;;;5100520;28;20159;-68
2021/12/12 02:02:22;;;;;;;26.70;16.23;;;-0.40;99.90;;;;;;5099589;28;20159;-73
2021/12/12 02:04:51;;;;;;;28.27;15.50;;;-0.40;99.90;;;;;;5102686;28;20213;-70
2021/12/12 02:07:21;;;;;;;29.43;14.60;;;-0.40;99.90;;;;;;5102353;28;20220;-68
2021/12/12 02:09:48;;;;;;;30.90;16.03;;;-0.50;99.90;;;;;;5100628;28;20166;-69
2021/12/12 02:12:15;;;;;;;23.23;14.13;;;-0.50;99.90;;;;;;5097755;28;20242;-69
2021/12/12 02:14:42;;;;;;;26.77;14.43;;;-0.50;99.90;;;;;;5097277;28;20195;-69
2021/12/12 02:17:22;;;;;;;27.37;15.50;;;-0.50;99.90;;;;;;5097586;28;20678;-70
2021/12/12 02:20:11;;;;;;;20.67;13.47;;;-0.50;99.90;;;;;;5095801;28;20174;-70
2021/12/12 02:23:02;;;;;;;24.70;14.97;;;-0.50;99.90;;;;;;5095825;28;20169;-68
2021/12/12 02:36:33;;;;;;;24.70;14.03;;;-0.60;99.90;;;;;;5094679;28;20237;-69
2021/12/12 02:39:02;;;;;;;24.93;13.67;;;-0.40;99.90;;;;;;5094925;28;20594;-69
2021/12/12 02:41:28;;;;;;;23.60;13.47;;;-0.60;99.90;;;;;;5095009;28;20170;-71
2021/12/12 02:44:03;;;;;;;25.20;13.20;;;-0.60;99.90;;;;;;5094415;28;20159;-70
2021/12/12 02:46:33;;;;;;;25.80;14.03;;;-0.50;99.90;;;;;;5094613;28;20174;-71
2021/12/12 02:49:08;;;;;;;26.00;14.07;;;-0.60;99.90;;;;;;5094318;28;20153;-71
2021/12/12 02:51:37;;;;;;;29.40;13.93;;;-0.60;99.90;;;;;;5094730;28;20217;-70
2021/12/12 02:54:03;;;;;;;23.70;12.90;;;-0.70;99.90;;;;;;5095030;28;20184;-71
2021/12/12 02:56:48;;;;;;;22.77;12.60;;;-0.70;99.90;;;;;;5094052;28;20166;-70
2021/12/12 02:59:19;;;;;;;24.03;14.23;;;-0.70;99.90;;;;;;5094689;28;20154;-70
2021/12/12 03:01:48;;;;;;;24.97;13.33;;;-0.60;99.90;;;;;;5094247;28;20161;-69
2021/12/12 03:04:14;;;;;;;23.43;13.17;;;-0.60;99.90;;;;;;5094859;28;20169;-69
2021/12/12 03:06:43;;;;;;;25.23;13.60;;;-0.70;99.90;;;;;;5094488;28;20288;-70
2021/12/12 03:09:30;;;;;;;25.27;13.63;;;-0.70;99.90;;;;;;5094377;28;20209;-70
2021/12/12 03:12:03;;;;;;;22.53;14.03;;;-0.70;99.90;;;;;;5094096;28;20632;-69
2021/12/12 03:14:33;;;;;;;22.20;12.83;;;-0.60;99.90;;;;;;5076505;28;20232;-69
2021/12/12 03:17:02;;;;;;;22.90;12.77;;;-0.70;99.90;;;;;;5094614;28;20171;-69
2021/12/12 03:19:28;;;;;;;24.80;12.73;;;-0.70;99.90;;;;;;5094144;28;20654;-69
2021/12/12 03:21:55;;;;;;;22.53;13.07;;;-0.70;99.90;;;;;;5094523;28;20156;-69
2021/12/12 03:24:24;;;;;;;20.47;12.90;;;-0.80;99.90;;;;;;5094333;28;20265;-69
2021/12/12 03:26:53;;;;;;;22.03;11.77;;;-0.70;99.90;;;;;;5094065;28;20218;-70
2021/12/12 03:29:19;;;;;;;26.27;12.97;;;-0.70;99.90;;;;;;5094054;28;20156;-68
2021/12/12 03:31:59;;;;;;;24.33;12.97;;;-0.80;99.90;;;;;;5094231;28;20676;-70
2021/12/12 03:34:29;;;;;;;23.60;12.00;;;-0.70;99.90;;;;;;5094313;28;20163;-71
2021/12/12 03:36:55;;;;;;;24.20;13.50;;;-0.70;99.90;;;;;;5074107;28;20222;-69
2021/12/12 03:39:33;;;;;;;21.40;12.37;;;-0.80;99.90;;;;;;5073613;28;20156;-70
2021/12/12 03:42:02;;;;;;;21.13;11.97;;;-0.80;99.90;;;;;;5055756;28;20514;-69
2021/12/12 03:44:31;;;;;;;20.23;12.10;;;-0.80;99.90;;;;;;5073427;28;20190;-69
2021/12/12 03:47:02;;;;;;;19.83;12.27;;;-0.90;99.90;;;;;;5075601;28;20163;-69
2021/12/12 03:49:27;;;;;;;19.10;12.27;;;-0.90;99.90;;;;;;5082760;28;20532;-69
2021/12/12 03:51:53;;;;;;;21.10;12.03;;;-1.00;99.90;;;;;;5076818;28;20273;-69
2021/12/12 03:54:20;;;;;;;20.40;12.07;;;-1.00;99.90;;;;;;5073777;28;20191;-69
2021/12/12 03:56:45;;;;;;;22.93;12.83;;;-1.00;99.90;;;;;;5074489;28;20265;-69
2021/12/12 03:59:12;;;;;;;22.60;12.10;;;-1.00;99.90;;;;;;5076292;28;20164;-70
2021/12/12 04:01:43;;;;;;;22.37;11.40;;;-1.00;99.90;;;;;;5079054;28;20480;-71
2021/12/12 04:04:17;;;;;;;22.07;12.13;;;-0.90;99.90;;;;;;5080965;28;20161;-72
2021/12/12 04:06:43;;;;;;;20.37;12.23;;;-0.90;99.90;;;;;;5078728;28;20170;-70
2021/12/12 04:09:11;;;;;;;21.67;12.13;;;-0.90;99.90;;;;;;5077763;28;20160;-69
2021/12/12 04:11:42;;;;;;;21.40;11.73;;;-0.90;99.90;;;;;;5077101;28;20198;-70
2021/12/12 04:14:09;;;;;;;19.07;11.37;;;-0.80;99.90;;;;;;5081137;28;20167;-71
2021/12/12 04:16:37;;;;;;;19.97;11.47;;;-0.90;99.90;;;;;;5073881;28;20167;-70
2021/12/12 04:19:05;;;;;;;20.73;11.00;;;-0.90;99.90;;;;;;5072917;28;20201;-71
2021/12/12 04:21:32;;;;;;;22.93;11.87;;;-0.90;99.90;;;;;;5073220;28;20175;-70
2021/12/12 04:23:59;;;;;;;20.90;12.23;;;-0.80;99.90;;;;;;5073170;28;20171;-71
2021/12/12 04:26:29;;;;;;;22.90;13.00;;;-1.00;99.90;;;;;;5073326;28;20167;-71
2021/12/12 04:29:07;;;;;;;18.27;11.63;;;-0.90;99.90;;;;;;5073218;28;20166;-70
2021/12/12 04:31:34;;;;;;;19.17;10.83;;;-0.90;99.90;;;;;;5074925;28;20273;-70
2021/12/12 04:34:00;;;;;;;18.50;11.00;;;-1.00;99.90;;;;;;5076261;28;20164;-69
2021/12/12 04:36:29;;;;;;;19.87;11.10;;;-1.00;99.90;;;;;;5075676;28;20250;-70
2021/12/12 04:39:03;;;;;;;19.87;10.60;;;-1.00;99.90;;;;;;5073691;28;20580;-70
2021/12/12 04:41:31;;;;;;;18.70;11.27;;;-1.10;99.90;;;;;;5055325;28;20167;-70
2021/12/12 04:43:57;;;;;;;19.50;11.87;;;-1.10;99.90;;;;;;5072594;28;20623;-71
2021/12/12 04:46:36;;;;;;;20.87;11.97;;;-1.10;99.90;;;;;;5072876;28;20173;-70
2021/12/12 04:51:57;;;;;;;20.50;10.97;;;-1.00;99.90;;;;;;5072509;28;20295;-70
2021/12/12 04:54:50;;;;;;;17.03;10.10;;;-1.00;99.90;;;;;;5072792;28;20559;-69
2021/12/12 04:57:22;;;;;;;16.63;9.90;;;-1.00;99.90;;;;;;5072681;28;20629;-69
2021/12/12 05:00:03;;;;;;;19.63;10.73;;;-1.00;99.90;;;;;;5072885;28;20164;-69
2021/12/12 05:02:37;;;;;;;16.40;9.70;;;-1.00;99.90;;;;;;5072733;28;20164;-69
2021/12/12 05:05:13;;;;;;;17.20;9.70;;;-1.00;99.90;;;;;;5073036;28;20619;-69
2021/12/12 05:07:51;;;;;;;18.40;10.63;;;-0.90;99.90;;;;;;5055111;28;20180;-69
2021/12/12 05:10:31;;;;;;;19.40;11.17;;;-0.90;99.90;;;;;;5072503;28;20179;-69
2021/12/12 05:13:05;;;;;;;20.43;11.47;;;-0.80;99.90;;;;;;5076492;28;20159;-69
2021/12/12 05:16:02;;;;;;;22.27;11.27;;;-0.70;99.90;;;;;;5076425;28;20163;-71
2021/12/12 05:18:31;;;;;;;16.50;10.50;;;-0.70;99.90;;;;;;5073872;28;20199;-69
2021/12/12 05:21:01;;;;;;;17.07;10.17;;;-0.70;99.90;;;;;;5077990;28;20183;-69
2021/12/12 05:23:30;;;;;;;18.70;10.27;;;-0.70;99.90;;;;;;5079957;28;20164;-69
2021/12/12 05:26:01;;;;;;;17.97;10.93;;;-0.70;99.90;;;;;;5077528;28;20599;-69
2021/12/12 05:28:42;;;;;;;18.10;10.77;;;-0.70;99.90;;;;;;5076628;28;20168;-70
2021/12/12 05:31:10;;;;;;;19.43;10.37;;;-0.70;99.90;;;;;;5076375;28;20238;-70
2021/12/12 05:33:38;;;;;;;20.73;11.07;;;-0.80;99.90;;;;;;5076675;28;20177;-68
2021/12/12 05:36:08;;;;;;;22.47;11.43;;;-0.80;99.90;;;;;;5075999;28;20224;-66
2021/12/12 05:38:34;;;;;;;20.67;11.63;;;-0.80;99.90;;;;;;5076066;28;20611;-72
2021/12/12 05:41:00;;;;;;;19.37;11.30;;;-0.80;99.90;;;;;;5076566;28;20267;-69
2021/12/12 05:43:27;;;;;;;19.33;11.13;;;-0.80;99.90;;;;;;5076137;28;20185;-73
2021/12/12 05:45:54;;;;;;;18.77;10.70;;;-0.90;99.90;;;;;;5076272;28;20268;-69
2021/12/12 05:48:21;;;;;;;17.80;10.83;;;-0.80;99.90;;;;;;5075902;28;20620;-68
2021/12/12 05:50:49;;;;;;;20.70;10.83;;;-0.90;99.90;;;;;;5075422;28;20241;-70
2021/12/12 05:53:15;;;;;;;19.30;11.03;;;-0.80;99.90;;;;;;5075960;28;20506;-71
2021/12/12 05:55:42;;;;;;;18.73;11.03;;;-0.80;99.90;;;;;;5075976;28;20163;-69
2021/12/12 05:58:11;;;;;;;15.50;10.30;;;-0.70;99.90;;;;;;5057758;28;20183;-69
2021/12/12 06:00:59;;;;;;;16.17;9.73;;;-0.80;99.90;;;;;;5076058;28;20163;-69
2021/12/12 06:03:27;;;;;;;16.63;10.03;;;-0.60;99.90;;;;;;5075479;28;20246;-69
2021/12/12 06:05:55;;;;;;;16.87;10.17;;;-0.70;99.90;;;;;;5075487;28;20168;-68
2021/12/12 06:08:24;;;;;;;18.73;10.70;;;-0.80;99.90;;;;;;5075694;28;20168;-69
2021/12/12 06:10:52;;;;;;;15.87;10.30;;;-0.90;99.90;;;;;;5075218;28;20188;-69
2021/12/12 06:13:19;;;;;;;14.63;9.77;;;-0.80;99.90;;;;;;5075273;28;20346;-70
2021/12/12 06:15:50;;;;;;;18.57;10.93;;;-0.90;99.90;;;;;;5075171;28;20164;-70
2021/12/12 06:18:18;;;;;;;16.37;9.97;;;-0.90;99.90;;;;;;5075151;28;20582;-67
2021/12/12 06:20:44;;;;;;;18.47;9.97;;;-1.00;99.90;;;;;;5074990;28;20600;-70
2021/12/12 06:23:10;;;;;;;17.43;10.00;;;-1.10;99.90;;;;;;5073559;28;20194;-66
2021/12/12 06:25:37;;;;;;;19.17;10.50;;;-1.00;99.90;;;;;;5074859;28;20157;-67
2021/12/12 06:28:16;;;;;;;17.07;9.20;;;-1.00;99.90;;;;;;5075023;28;20191;-69
2021/12/12 06:30:43;;;;;;;18.33;9.73;;;-1.20;99.90;;;;;;5074270;28;20274;-69
2021/12/12 06:33:10;;;;;;;16.30;9.77;;;-1.20;99.90;;;;;;5074623;28;20170;-68
2021/12/12 06:35:36;;;;;;;17.60;10.17;;;-1.30;99.90;;;;;;5074870;28;20223;-68
2021/12/12 06:38:05;;;;;;;18.77;10.87;;;-1.20;99.90;;;;;;5074236;28;20562;-69
2021/12/12 06:40:32;;;;;;;16.53;10.10;;;-1.20;99.90;;;;;;5057158;28;20631;-67
2021/12/12 06:43:04;;;;;;;16.47;10.30;;;-1.20;99.90;;;;;;5074433;28;20171;-68
2021/12/12 06:45:30;;;;;;;16.40;9.53;;;-1.40;99.90;;;;;;5077154;28;20151;-70
2021/12/12 06:47:56;;;;;;;16.53;10.53;;;-1.30;99.90;;;;;;5081711;28;20193;-69
2021/12/12 06:50:25;;;;;;;20.83;10.33;;;-1.40;99.90;;;;;;5075068;28;20497;-69
2021/12/12 06:52:53;;;;;;;16.07;10.43;;;-1.40;99.90;;;;;;5074884;28;20250;-68
2021/12/12 06:55:20;;;;;;;18.83;10.57;;;-1.40;99.90;;;;;;5075868;28;20606;-69
2021/12/12 06:57:46;;;;;;;19.27;10.57;;;-1.30;99.90;;;;;;5083532;28;20211;-68
2021/12/12 07:00:17;;;;;;;16.57;9.63;;;-1.30;99.90;;;;;;5080890;28;20175;-69
2021/12/12 07:02:44;;;;;;;23.53;10.83;;;-1.30;99.90;;;;;;5079012;28;20591;-67
2021/12/12 07:05:20;;;;;;;19.67;10.03;;;-1.30;99.90;;;;;;5081967;28;20221;-71
2021/12/12 07:07:48;;;;;;;17.50;10.27;;;-1.30;99.90;;;;;;5084043;28;20310;-69
2021/12/12 07:10:16;;;;;;;17.40;10.67;;;-1.30;99.90;;;;;;5084572;28;20156;-71
2021/12/12 07:12:43;;;;;;;22.07;11.20;;;-1.40;99.90;;;;;;5078780;28;20196;-72
2021/12/12 07:15:15;;;;;;;19.93;10.33;;;-1.30;99.90;;;;;;5074842;28;20252;-68
2021/12/12 07:17:41;;;;;;;18.73;11.10;;;-1.20;99.90;;;;;;5074066;28;20164;-69
2021/12/12 07:20:12;;;;;;;18.00;10.40;;;-1.20;99.90;;;;;;5073760;28;20167;-69
2021/12/12 07:22:38;;;;;;;20.07;10.80;;;-1.20;99.90;;;;;;5073649;28;20170;-69
2021/12/12 07:25:06;;;;;;;15.90;10.10;;;-1.10;99.90;;;;;;5073652;28;20171;-69
2021/12/12 07:27:32;;;;;;;22.37;11.23;;;-1.00;99.90;;;;;;5073680;28;20251;-69
2021/12/12 07:29:59;;;;;;;14.43;10.33;;;-1.10;99.90;;;;;;5073405;28;20578;-70
2021/12/12 07:32:29;;;;;;;19.27;10.90;;;-1.10;99.90;;;;;;5074192;28;20224;-68
2021/12/12 07:34:55;;;;;;;18.87;10.73;;;-1.10;99.90;;;;;;5076594;28;20540;-69
2021/12/12 07:37:21;;;;;;;18.60;10.93;;;-1.10;99.90;;;;;;5093990;28;20166;-69
2021/12/12 07:39:47;;;;;;;22.27;10.90;;;-1.10;99.90;;;;;;5093685;28;20171;-69
2021/12/12 07:42:16;;;;;;;21.77;11.40;;;-1.00;99.90;;;;;;5093947;28;20241;-69
2021/12/12 07:44:45;;;;;;;21.10;12.80;;;-1.00;99.90;;;;;;5093439;28;20161;-68
2021/12/12 07:47:13;;;;;;;20.13;10.83;;;-1.00;99.90;;;;;;5093692;28;20167;-69
2021/12/12 07:49:43;;;;;;;20.20;10.20;;;-1.00;99.90;;;;;;5093882;28;20505;-69
2021/12/12 07:52:12;;;;;;;19.17;10.13;;;-1.00;99.90;;;;;;5093927;28;20194;-69
2021/12/12 07:54:38;;;;;;;16.80;9.67;;;-0.90;99.90;;;;;;5094134;28;20171;-67
2021/12/12 07:57:06;;;;;;;18.30;10.43;;;-1.00;99.90;;;;;;5093841;28;20171;-68
2021/12/12 07:59:35;;;;;;;15.93;9.47;;;-1.00;99.90;;;;;;5093304;28;20163;-70
2021/12/12 08:02:02;;;;;;;18.23;10.30;;;-0.90;99.90;;;;;;5093596;28;20221;-68
2021/12/12 08:04:30;;;;;;;16.63;9.40;;;-0.80;99.90;;;;;;5093267;28;20174;-68
2021/12/12 08:06:56;;;;;;;20.07;10.13;;;-0.70;99.90;;;;;;5093431;28;20163;-69
2021/12/12 08:09:23;;;;;;;18.00;10.17;;;-0.70;99.90;;;;;;5093547;28;20172;-69
2021/12/12 08:11:50;;;;;;;20.00;10.33;;;-0.70;99.90;;;;;;5093277;28;20222;-70
2021/12/12 08:14:23;;;;;;;17.97;10.10;;;-0.70;99.90;;;;;;5093675;28;20178;-70
2021/12/12 08:16:51;;;;;;;20.73;10.53;;;-0.60;99.90;;;;;;5093374;28;20201;-70
2021/12/12 08:19:18;;;;;;;15.47;9.33;;;-0.50;99.90;;;;;;5092959;28;20513;-69
2021/12/12 08:21:46;;;;;;;18.00;10.40;;;-0.40;99.90;;;;;;5093555;28;20498;-70
2021/12/12 08:24:13;;;;;;;14.07;8.57;;;-0.40;99.90;;;;;;5075807;28;20175;-69
2021/12/12 08:26:42;;;;;;;16.43;9.83;;;-0.40;99.90;;;;;;5093496;28;20488;-71
2021/12/12 08:29:11;;;;;;;14.97;9.13;;;-0.40;99.90;;;;;;5075615;28;20269;-70
2021/12/12 08:31:38;;;;;;;17.43;10.00;;;-0.40;99.90;;;;;;5093472;28;20272;-70
2021/12/12 08:34:06;;;;;;;16.13;9.63;;;-0.40;99.90;;;;;;5093371;28;20178;-70
2021/12/12 08:36:34;;;;;;;14.07;8.40;;;-0.40;99.90;;;;;;5074541;28;20256;-70
2021/12/12 08:39:00;;;;;;;13.53;8.70;;;-0.30;99.90;;;;;;5092703;28;20250;-70
2021/12/12 08:41:26;;;;;;;15.80;8.43;;;-0.30;99.90;;;;;;5093005;28;20254;-71
2021/12/12 08:43:52;;;;;;;18.00;9.27;;;-0.20;99.90;;;;;;5092906;28;20184;-69
2021/12/12 08:46:18;;;;;;;18.20;8.63;;;-0.30;99.90;;;;;;5095147;28;20165;-68
2021/12/12 08:48:49;;;;;;;14.47;8.70;;;-0.30;99.90;;;;;;5097279;28;20193;-68
2021/12/12 08:51:30;;;;;;;15.40;9.27;;;-0.10;99.90;;;;;;5096783;28;20340;-68
2021/12/12 08:54:01;;;;;;;16.30;9.37;;;-0.10;99.90;;;;;;5096651;28;20609;-69
2021/12/12 08:56:42;;;;;;;15.37;9.03;;;0.00;99.90;;;;;;5097053;28;20158;-68
2021/12/12 08:59:11;;;;;;;14.97;8.90;;;0.10;99.90;;;;;;5096392;28;20518;-70
2021/12/12 09:01:38;;;;;;;15.17;9.07;;;0.10;99.90;;;;;;5096758;28;20595;-71
2021/12/12 09:04:07;;;;;;;13.47;8.80;;;0.20;99.90;;;;;;5097244;28;20163;-69
2021/12/12 09:06:38;;;;;;;14.10;8.57;;;0.20;99.90;;;;;;5097259;28;20155;-69
2021/12/12 09:09:12;;;;;;;15.90;9.50;;;0.30;99.90;;;;;;5096917;28;20155;-69
2021/12/12 09:11:51;;;;;;;12.90;8.43;;;0.30;99.90;;;;;;5096513;28;20191;-69
2021/12/12 09:14:27;;;;;;;18.97;8.83;;;0.50;99.90;;;;;;5078761;28;20269;-68
2021/12/12 09:17:11;;;;;;;13.60;8.20;;;0.40;99.90;;;;;;5097184;28;20574;-70
2021/12/12 09:19:45;;;;;;;15.03;8.53;;;0.30;99.90;;;;;;5096777;28;20161;-69
2021/12/12 09:22:48;;;;;;;14.10;8.40;;;0.40;99.90;;;;;;5097180;28;20163;-69
2021/12/12 09:25:35;;;;;;;13.47;8.27;;;0.50;99.90;;;;;;5098782;28;20174;-69
2021/12/12 09:28:15;;;;;;;19.87;9.80;;;0.50;99.90;;;;;;5102105;28;20162;-68
2021/12/12 09:30:41;;;;;;;18.53;8.40;;;0.60;99.90;;;;;;5081806;28;20658;-69
2021/12/12 09:33:26;;;;;;;15.07;8.53;;;0.60;99.90;;;;;;5078660;28;20182;-67
2021/12/12 09:36:00;;;;;;;13.60;8.60;;;0.70;99.90;;;;;;5096239;28;20220;-66
2021/12/12 09:38:40;;;;;;;17.87;9.03;;;0.70;99.90;;;;;;5096412;28;20189;-68
2021/12/12 09:41:28;;;;;;;15.60;8.20;;;0.80;99.90;;;;;;5095805;28;20161;-67
2021/12/12 09:44:31;;;;;;;14.17;8.37;;;0.80;99.90;;;;;;5097922;28;20225;-68
2021/12/12 09:47:30;;;;;;;13.13;8.53;;;1.00;99.90;;;;;;5099865;28;20231;-68
2021/12/12 09:53:11;;;;;;;16.47;9.23;;;1.20;99.90;;;;;;5095723;28;20595;-68
2021/12/12 09:55:58;;;;;;;14.83;8.43;;;1.20;99.90;;;;;;5094464;28;20186;-69
2021/12/12 09:59:01;;;;;;;14.37;8.70;;;1.40;99.90;;;;;;5095791;28;20154;-69
2021/12/12 10:01:57;;;;;;;14.27;8.80;;;1.50;99.90;;;;;;5095421;28;20174;-67
2021/12/12 10:05:03;;;;;;;14.90;8.07;;;1.70;99.90;;;;;;5096234;28;20214;-65
2021/12/12 10:07:50;;;;;;;13.93;8.57;;;1.80;99.90;;;;;;5095463;28;20592;-67
2021/12/12 10:10:42;;;;;;;16.87;9.40;;;1.70;99.90;;;;;;5095418;28;20167;-69
2021/12/12 10:13:19;;;;;;;15.90;8.47;;;1.90;99.90;;;;;;5095526;28;20175;-67
2021/12/12 10:15:51;;;;;;;13.60;7.97;;;2.00;99.90;;;;;;5095365;28;20178;-69
2021/12/12 10:18:38;;;;;;;13.40;8.17;;;2.00;99.90;;;;;;5095388;28;20185;-68
2021/12/12 10:21:24;;;;;;;13.77;8.07;;;2.00;99.90;;;;;;5095555;28;20201;-67
2021/12/12 10:24:02;;;;;;;14.37;8.77;;;2.20;99.90;;;;;;5095152;28;20576;-68
2021/12/12 10:26:36;;;;;;;11.77;8.50;;;2.10;99.90;;;;;;5096498;28;20166;-68
2021/12/12 10:29:22;;;;;;;13.50;7.87;;;2.20;99.90;;;;;;5076509;28;20239;-65
2021/12/12 10:31:57;;;;;;;13.33;8.10;;;2.20;99.90;;;;;;5095407;28;20209;-66
2021/12/12 10:34:36;;;;;;;16.57;8.40;;;2.20;99.90;;;;;;5080948;28;20274;-68
2021/12/12 10:37:10;;;;;;;13.80;8.93;;;2.30;99.90;;;;;;5058210;28;20180;-68
2021/12/12 10:39:48;;;;;;;16.73;9.57;;;2.30;99.90;;;;;;5058119;28;20167;-67
2021/12/12 10:42:16;;;;;;;14.00;8.77;;;2.30;99.90;;;;;;5074700;28;20251;-69
2021/12/12 10:45:00;;;;;;;12.23;7.93;;;2.30;99.90;;;;;;5057729;28;20161;-69
2021/12/12 10:47:48;;;;;;;14.03;7.80;;;2.40;99.90;;;;;;5072241;28;20223;-67
2021/12/12 10:50:23;;;;;;;17.07;8.63;;;2.50;99.90;;;;;;5044643;28;20188;-69
2021/12/12 10:53:04;;;;;;;12.93;8.73;;;2.60;99.90;;;;;;5059058;28;20255;-67
2021/12/12 10:55:36;;;;;;;17.20;8.87;;;2.70;99.90;;;;;;5056932;28;20152;-67
2021/12/12 10:58:05;;;;;;;12.47;7.30;;;2.70;99.90;;;;;;5055396;28;20588;-68
2021/12/12 11:00:36;;;;;;;13.43;8.47;;;2.80;99.90;;;;;;5054291;28;20164;-67
2021/12/12 11:03:31;;;;;;;14.63;7.87;;;2.90;99.90;;;;;;5055649;28;20180;-67
2021/12/12 11:06:22;;;;;;;13.97;8.40;;;3.00;99.90;;;;;;5054928;28;20187;-70
2021/12/12 11:08:57;;;;;;;15.80;8.67;;;3.10;99.90;;;;;;5055791;28;20225;-69
2021/12/12 11:11:26;;;;;;;13.80;7.70;;;3.20;99.90;;;;;;5072275;28;20231;-68
2021/12/12 11:14:11;;;;;;;10.37;6.70;;;3.20;99.90;;;;;;5058135;28;20160;-68
2021/12/12 11:16:53;;;;;;;13.57;6.83;;;3.20;99.90;;;;;;5057320;28;20160;-67
2021/12/12 11:19:40;;;;;;;11.20;6.07;;;3.30;99.90;;;;;;5054709;28;20240;-69
2021/12/12 11:22:27;;;;;;;13.53;6.87;;;3.30;99.90;;;;;;5054237;28;20217;-68
2021/12/12 11:25:00;;;;;;;11.17;6.63;;;3.40;99.90;;;;;;5045372;28;20211;-67
2021/12/12 11:27:37;;;;;;;12.20;6.10;;;3.40;99.90;;;;;;5053756;28;20161;-68
2021/12/12 11:30:45;;;;;;;9.67;6.27;;;3.40;99.90;;;;;;5053692;28;20188;-69
2021/12/12 11:33:12;;;;;;;14.57;6.47;;;3.40;99.90;;;;;;5053619;28;20235;-68
2021/12/12 11:35:41;;;;;;;16.07;9.17;;;3.40;99.90;;;;;;5062203;28;20310;-68
2021/12/12 11:38:22;;;;;;;13.80;8.10;;;3.50;99.90;;;;;;5072736;28;20163;-68
2021/12/12 11:40:59;;;;;;;13.77;7.43;;;3.50;99.90;;;;;;5072767;28;20171;-67
2021/12/12 11:43:40;;;;;;;10.00;6.37;;;3.60;99.90;;;;;;5072696;28;20204;-67
2021/12/12 11:46:20;;;;;;;14.63;8.80;;;3.60;99.90;;;;;;5072947;28;20199;-69
2021/12/12 11:48:53;;;;;;;8.37;6.17;;;3.70;99.90;;;;;;5073237;28;20167;-70
2021/12/12 11:51:32;;;;;;;9.43;6.30;;;3.70;99.90;;;;;;5077878;28;20199;-69
2021/12/12 11:54:26;;;;;;;11.47;6.40;;;3.70;99.90;;;;;;5076633;28;20227;-68
2021/12/12 11:56:59;;;;;;;11.93;6.77;;;3.80;99.90;;;;;;5075192;28;20202;-69
2021/12/12 11:59:41;;;;;;;10.37;7.10;;;3.70;99.90;;;;;;5072685;28;20173;-69
2021/12/12 12:02:15;;;;;;;14.27;7.07;;;3.70;99.90;;;;;;5088784;28;20544;-68
2021/12/12 12:05:02;;;;;;;15.23;8.07;;;3.70;99.90;;;;;;5072792;28;20160;-69
2021/12/12 12:07:45;;;;;;;11.23;6.10;;;3.70;99.90;;;;;;5073454;28;20630;-69
2021/12/12 12:10:19;;;;;;;10.43;6.17;;;3.70;99.90;;;;;;5072936;28;20172;-68
2021/12/12 12:13:21;;;;;;;12.53;6.90;;;3.70;99.90;;;;;;5072929;28;20524;-68
2021/12/12 12:16:37;;;;;;;14.50;6.73;;;3.80;99.90;;;;;;5072674;28;20199;-68
2021/12/12 12:19:11;;;;;;;13.03;6.77;;;3.80;99.90;;;;;;5046603;28;20195;-70
2021/12/12 12:21:40;;;;;;;16.53;6.60;;;3.90;99.90;;;;;;5071538;28;20515;-68
2021/12/12 12:24:22;;;;;;;18.87;8.20;;;3.90;99.90;;;;;;5072557;28;20329;-69
2021/12/12 12:27:02;;;;;;;13.03;8.00;;;4.00;99.90;;;;;;5072866;28;20722;-67
2021/12/12 12:29:28;;;;;;;15.43;8.23;;;4.10;99.90;;;;;;5071087;28;20187;-68
2021/12/12 12:32:15;;;;;;;13.20;7.50;;;4.30;99.90;;;;;;5072419;28;20223;-69
2021/12/12 12:34:49;;;;;;;12.47;6.83;;;4.30;99.90;;;;;;5032332;28;1129560;-68
2021/12/12 12:37:52;;;;;;;12.87;6.77;;;4.40;99.90;;;;;;5073055;28;20208;-69
2021/12/12 12:40:51;;;;;;;12.87;7.80;;;4.50;99.90;;;;;;5073068;28;20577;-67
2021/12/12 12:43:45;;;;;;;14.10;8.37;;;4.50;99.90;;;;;;5077362;28;20219;-69
2021/12/12 12:46:52;;;;;;;19.83;7.13;;;4.60;99.90;;;;;;5076033;28;20613;-68
2021/12/12 12:49:45;;;;;;;14.30;7.17;;;4.50;99.90;;;;;;5072672;28;20163;-69
2021/12/12 12:52:41;;;;;;;12.93;7.77;;;4.60;99.90;;;;;;5072276;28;20198;-69
2021/12/12 12:55:29;;;;;;;13.07;7.37;;;4.50;99.90;;;;;;5072280;28;20165;-67
2021/12/12 12:58:09;;;;;;;13.77;7.53;;;4.50;99.90;;;;;;5072808;28;20587;-69
2021/12/12 13:00:36;;;;;;;8.80;5.93;;;4.50;99.90;;;;;;5073316;28;20494;-68
2021/12/12 13:03:28;;;;;;;11.80;7.03;;;4.40;99.90;;;;;;5055128;28;20518;-69
2021/12/12 13:05:59;;;;;;;17.97;7.07;;;4.40;99.90;;;;;;5065754;28;20662;-69
2021/12/12 13:08:50;;;;;;;10.60;7.37;;;4.40;99.90;;;;;;5072483;28;20164;-68
2021/12/12 13:11:21;;;;;;;11.20;6.93;;;4.40;99.90;;;;;;5073220;28;20517;-68
2021/12/12 13:14:30;;;;;;;12.30;7.30;;;4.40;99.90;;;;;;5088505;28;20200;-67
2021/12/12 13:17:11;;;;;;;16.17;6.80;;;4.40;99.90;;;;;;5073149;28;20165;-68
2021/12/12 13:19:55;;;;;;;11.67;6.93;;;4.40;99.90;;;;;;5072065;28;20359;-67
2021/12/12 13:22:42;;;;;;;13.93;6.87;;;4.40;99.90;;;;;;5072629;28;20162;-69
2021/12/12 13:25:16;;;;;;;11.30;7.03;;;4.40;99.90;;;;;;5072222;28;20589;-69
2021/12/12 13:28:17;;;;;;;17.67;8.60;;;4.40;99.90;;;;;;5072247;28;20163;-67